sensor_id;sensor_type;location;lat;lon;timestamp;P1;durP1;ratioP1;P2;durP2;ratioP2
33381;SDS011;21342;48.786;9.166;2022-08-19T00:01:22;15.47;;;13.90;;
33381;SDS011;21342;48.786;9.166;2022-08-19T00:03:49;17.90;;;14.57;;
33381;SDS011;21342;48.786;9.166;2022-08-19T00:06:17;16.40;;;14.73;;
33381;SDS011;21342;48.786;9.166;2022-08-19T00:08:44;16.10;;;14.40;;
33381;SDS011;21342;48.786;9.166;2022-08-19T00:11:11;17.97;;;14.20;;
33381;SDS011;21342;48.786;9.166;2022-08-19T00:13:38;17.00;;;15.23;;
33381;SDS011;21342;48.786;9.166;2022-08-19T00:16:07;17.47;;;15.63;;
33381;SDS011;21342;48.786;9.166;2022-08-19T00:18:34;17.20;;;15.37;;
33381;SDS011;21342;48.786;9.166;2022-08-19T00:21:02;14.57;;;13.13;;
33381;SDS011;21342;48.786;9.166;2022-08-19T00:23:34;13.90;;;12.50;;
33381;SDS011;21342;48.786;9.166;2022-08-19T00:26:02;16.80;;;15.10;;
33381;SDS011;21342;48.786;9.166;2022-08-19T00:28:30;17.53;;;15.77;;
33381;SDS011;21342;48.786;9.166;2022-08-19T00:30:58;15.83;;;14.43;;
33381;SDS011;21342;48.786;9.166;2022-08-19T00:33:26;15.50;;;13.87;;
33381;SDS011;21342;48.786;9.166;2022-08-19T00:35:54;17.30;;;15.53;;
33381;SDS011;21342;48.786;9.166;2022-08-19T00:38:22;16.93;;;14.90;;
33381;SDS011;21342;48.786;9.166;2022-08-19T00:40:49;15.77;;;14.27;;
33381;SDS011;21342;48.786;9.166;2022-08-19T00:43:18;20.40;;;14.97;;
33381;SDS011;21342;48.786;9.166;2022-08-19T00:45:47;15.70;;;14.07;;
33381;SDS011;21342;48.786;9.166;2022-08-19T00:48:15;16.93;;;15.13;;
33381;SDS011;21342;48.786;9.166;2022-08-19T00:50:44;16.33;;;14.63;;
33381;SDS011;21342;48.786;9.166;2022-08-19T00:53:13;16.70;;;15.00;;
33381;SDS011;21342;48.786;9.166;2022-08-19T00:55:45;16.10;;;14.53;;
33381;SDS011;21342;48.786;9.166;2022-08-19T00:58:14;17.07;;;15.37;;
33381;SDS011;21342;48.786;9.166;2022-08-19T01:00:44;15.07;;;13.60;;
33381;SDS011;21342;48.786;9.166;2022-08-19T01:03:15;17.10;;;15.40;;
33381;SDS011;21342;48.786;9.166;2022-08-19T01:05:46;16.83;;;14.90;;
33381;SDS011;21342;48.786;9.166;2022-08-19T01:08:15;17.13;;;13.43;;
33381;SDS011;21342;48.786;9.166;2022-08-19T01:10:46;16.13;;;14.53;;
33381;SDS011;21342;48.786;9.166;2022-08-19T01:13:16;17.83;;;16.03;;
33381;SDS011;21342;48.786;9.166;2022-08-19T01:15:46;19.80;;;15.87;;
33381;SDS011;21342;48.786;9.166;2022-08-19T01:18:17;16.67;;;14.37;;
33381;SDS011;21342;48.786;9.166;2022-08-19T01:20:48;17.60;;;15.80;;
33381;SDS011;21342;48.786;9.166;2022-08-19T01:23:17;18.93;;;16.03;;
33381;SDS011;21342;48.786;9.166;2022-08-19T01:25:45;17.03;;;15.23;;
33381;SDS011;21342;48.786;9.166;2022-08-19T01:28:15;16.40;;;14.77;;
33381;SDS011;21342;48.786;9.166;2022-08-19T01:30:44;17.87;;;15.97;;
33381;SDS011;21342;48.786;9.166;2022-08-19T01:33:12;17.20;;;14.70;;
33381;SDS011;21342;48.786;9.166;2022-08-19T01:35:40;17.17;;;14.77;;
33381;SDS011;21342;48.786;9.166;2022-08-19T01:38:08;19.60;;;15.73;;
33381;SDS011;21342;48.786;9.166;2022-08-19T01:40:39;19.13;;;16.30;;
33381;SDS011;21342;48.786;9.166;2022-08-19T01:43:07;34.63;;;16.00;;
33381;SDS011;21342;48.786;9.166;2022-08-19T01:45:38;18.60;;;15.67;;
33381;SDS011;21342;48.786;9.166;2022-08-19T01:48:05;18.67;;;16.70;;
33381;SDS011;21342;48.786;9.166;2022-08-19T01:50:33;18.03;;;15.67;;
33381;SDS011;21342;48.786;9.166;2022-08-19T01:53:01;18.90;;;16.03;;
33381;SDS011;21342;48.786;9.166;2022-08-19T01:55:30;17.87;;;15.97;;
33381;SDS011;21342;48.786;9.166;2022-08-19T01:57:59;18.23;;;16.33;;
33381;SDS011;21342;48.786;9.166;2022-08-19T02:00:29;18.17;;;16.27;;
33381;SDS011;21342;48.786;9.166;2022-08-19T02:02:57;17.27;;;15.50;;
33381;SDS011;21342;48.786;9.166;2022-08-19T02:05:26;17.73;;;15.87;;
33381;SDS011;21342;48.786;9.166;2022-08-19T02:07:54;19.10;;;17.20;;
33381;SDS011;21342;48.786;9.166;2022-08-19T02:10:22;19.47;;;17.50;;
33381;SDS011;21342;48.786;9.166;2022-08-19T02:12:49;18.90;;;16.90;;
33381;SDS011;21342;48.786;9.166;2022-08-19T02:15:19;19.83;;;17.73;;
33381;SDS011;21342;48.786;9.166;2022-08-19T02:17:47;20.77;;;18.60;;
33381;SDS011;21342;48.786;9.166;2022-08-19T02:20:15;19.53;;;17.43;;
33381;SDS011;21342;48.786;9.166;2022-08-19T02:22:43;20.70;;;17.03;;
33381;SDS011;21342;48.786;9.166;2022-08-19T02:25:10;19.80;;;17.33;;
33381;SDS011;21342;48.786;9.166;2022-08-19T02:27:38;22.47;;;17.47;;
33381;SDS011;21342;48.786;9.166;2022-08-19T02:30:07;21.30;;;18.17;;
33381;SDS011;21342;48.786;9.166;2022-08-19T02:32:39;19.73;;;17.63;;
33381;SDS011;21342;48.786;9.166;2022-08-19T02:35:07;18.77;;;16.87;;
33381;SDS011;21342;48.786;9.166;2022-08-19T02:37:35;19.50;;;17.40;;
33381;SDS011;21342;48.786;9.166;2022-08-19T02:40:19;20.43;;;18.47;;
33381;SDS011;21342;48.786;9.166;2022-08-19T02:42:46;21.63;;;17.40;;
33381;SDS011;21342;48.786;9.166;2022-08-19T02:45:13;21.50;;;17.90;;
33381;SDS011;21342;48.786;9.166;2022-08-19T02:47:42;20.43;;;18.37;;
33381;SDS011;21342;48.786;9.166;2022-08-19T02:50:09;21.47;;;19.10;;
33381;SDS011;21342;48.786;9.166;2022-08-19T02:52:37;22.07;;;18.73;;
33381;SDS011;21342;48.786;9.166;2022-08-19T02:55:05;23.57;;;18.50;;
33381;SDS011;21342;48.786;9.166;2022-08-19T02:57:33;21.17;;;18.83;;
33381;SDS011;21342;48.786;9.166;2022-08-19T03:00:02;23.70;;;20.67;;
33381;SDS011;21342;48.786;9.166;2022-08-19T03:02:31;20.87;;;18.67;;
33381;SDS011;21342;48.786;9.166;2022-08-19T03:04:59;21.97;;;19.20;;
33381;SDS011;21342;48.786;9.166;2022-08-19T03:07:28;22.53;;;20.20;;
33381;SDS011;21342;48.786;9.166;2022-08-19T03:09:55;21.00;;;18.83;;
33381;SDS011;21342;48.786;9.166;2022-08-19T03:12:22;23.17;;;20.67;;
33381;SDS011;21342;48.786;9.166;2022-08-19T03:14:49;22.23;;;20.00;;
33381;SDS011;21342;48.786;9.166;2022-08-19T03:17:17;23.23;;;20.23;;
33381;SDS011;21342;48.786;9.166;2022-08-19T03:19:45;24.50;;;21.73;;
33381;SDS011;21342;48.786;9.166;2022-08-19T03:22:14;24.43;;;21.57;;
33381;SDS011;21342;48.786;9.166;2022-08-19T03:24:41;27.30;;;22.10;;
33381;SDS011;21342;48.786;9.166;2022-08-19T03:27:09;25.30;;;22.50;;
33381;SDS011;21342;48.786;9.166;2022-08-19T03:29:36;23.70;;;21.27;;
33381;SDS011;21342;48.786;9.166;2022-08-19T03:32:04;26.93;;;21.63;;
33381;SDS011;21342;48.786;9.166;2022-08-19T03:34:33;23.43;;;21.03;;
33381;SDS011;21342;48.786;9.166;2022-08-19T03:37:03;23.10;;;20.80;;
33381;SDS011;21342;48.786;9.166;2022-08-19T03:39:33;24.83;;;22.17;;
33381;SDS011;21342;48.786;9.166;2022-08-19T03:42:03;23.13;;;20.83;;
33381;SDS011;21342;48.786;9.166;2022-08-19T03:44:31;24.67;;;22.10;;
33381;SDS011;21342;48.786;9.166;2022-08-19T03:46:59;26.27;;;23.47;;
33381;SDS011;21342;48.786;9.166;2022-08-19T03:49:27;24.80;;;21.67;;
33381;SDS011;21342;48.786;9.166;2022-08-19T03:51:55;25.10;;;21.63;;
33381;SDS011;21342;48.786;9.166;2022-08-19T03:54:25;26.27;;;22.07;;
33381;SDS011;21342;48.786;9.166;2022-08-19T03:56:54;25.97;;;23.17;;
33381;SDS011;21342;48.786;9.166;2022-08-19T03:59:24;24.77;;;21.63;;
33381;SDS011;21342;48.786;9.166;2022-08-19T04:01:54;26.27;;;23.50;;
33381;SDS011;21342;48.786;9.166;2022-08-19T04:04:22;24.50;;;21.90;;
33381;SDS011;21342;48.786;9.166;2022-08-19T04:06:49;23.63;;;21.10;;
33381;SDS011;21342;48.786;9.166;2022-08-19T04:09:18;30.10;;;24.83;;
33381;SDS011;21342;48.786;9.166;2022-08-19T04:11:46;21.50;;;19.40;;
33381;SDS011;21342;48.786;9.166;2022-08-19T04:14:17;25.87;;;22.30;;
33381;SDS011;21342;48.786;9.166;2022-08-19T04:16:45;26.40;;;22.50;;
33381;SDS011;21342;48.786;9.166;2022-08-19T04:19:13;23.00;;;20.60;;
33381;SDS011;21342;48.786;9.166;2022-08-19T04:21:42;28.13;;;24.93;;
33381;SDS011;21342;48.786;9.166;2022-08-19T04:24:10;25.37;;;21.37;;
33381;SDS011;21342;48.786;9.166;2022-08-19T04:26:39;29.50;;;23.37;;
33381;SDS011;21342;48.786;9.166;2022-08-19T04:29:07;25.57;;;22.87;;
33381;SDS011;21342;48.786;9.166;2022-08-19T04:31:37;26.83;;;22.97;;
33381;SDS011;21342;48.786;9.166;2022-08-19T04:34:06;27.37;;;24.47;;
33381;SDS011;21342;48.786;9.166;2022-08-19T04:36:36;25.00;;;22.30;;
33381;SDS011;21342;48.786;9.166;2022-08-19T04:39:05;28.27;;;23.30;;
33381;SDS011;21342;48.786;9.166;2022-08-19T04:41:34;22.77;;;20.43;;
33381;SDS011;21342;48.786;9.166;2022-08-19T04:44:18;26.73;;;22.13;;
33381;SDS011;21342;48.786;9.166;2022-08-19T04:46:52;25.00;;;22.23;;
33381;SDS011;21342;48.786;9.166;2022-08-19T04:49:20;28.37;;;25.37;;
33381;SDS011;21342;48.786;9.166;2022-08-19T04:51:49;23.33;;;20.97;;
33381;SDS011;21342;48.786;9.166;2022-08-19T04:54:19;27.10;;;24.20;;
33381;SDS011;21342;48.786;9.166;2022-08-19T04:56:48;28.63;;;24.03;;
33381;SDS011;21342;48.786;9.166;2022-08-19T04:59:17;27.37;;;24.07;;
33381;SDS011;21342;48.786;9.166;2022-08-19T05:01:45;26.33;;;23.60;;
33381;SDS011;21342;48.786;9.166;2022-08-19T05:04:17;26.90;;;23.77;;
33381;SDS011;21342;48.786;9.166;2022-08-19T05:06:46;29.17;;;26.10;;
33381;SDS011;21342;48.786;9.166;2022-08-19T05:09:14;25.53;;;22.83;;
33381;SDS011;21342;48.786;9.166;2022-08-19T05:11:42;22.93;;;20.40;;
33381;SDS011;21342;48.786;9.166;2022-08-19T05:14:10;27.40;;;23.80;;
33381;SDS011;21342;48.786;9.166;2022-08-19T05:16:38;26.80;;;24.00;;
33381;SDS011;21342;48.786;9.166;2022-08-19T05:19:06;26.03;;;23.07;;
33381;SDS011;21342;48.786;9.166;2022-08-19T05:21:52;25.10;;;22.53;;
33381;SDS011;21342;48.786;9.166;2022-08-19T05:24:37;24.90;;;22.30;;
33381;SDS011;21342;48.786;9.166;2022-08-19T05:27:04;27.50;;;23.17;;
33381;SDS011;21342;48.786;9.166;2022-08-19T05:29:32;22.90;;;20.60;;
33381;SDS011;21342;48.786;9.166;2022-08-19T05:32:00;26.03;;;23.20;;
33381;SDS011;21342;48.786;9.166;2022-08-19T05:34:30;27.80;;;23.77;;
33381;SDS011;21342;48.786;9.166;2022-08-19T05:36:59;22.70;;;20.37;;
33381;SDS011;21342;48.786;9.166;2022-08-19T05:39:30;25.07;;;22.37;;
33381;SDS011;21342;48.786;9.166;2022-08-19T05:41:59;25.73;;;22.77;;
33381;SDS011;21342;48.786;9.166;2022-08-19T05:44:28;26.77;;;22.20;;
33381;SDS011;21342;48.786;9.166;2022-08-19T05:46:57;24.77;;;22.13;;
33381;SDS011;21342;48.786;9.166;2022-08-19T05:49:25;25.43;;;22.87;;
33381;SDS011;21342;48.786;9.166;2022-08-19T05:51:53;24.63;;;21.67;;
33381;SDS011;21342;48.786;9.166;2022-08-19T05:54:22;25.23;;;22.60;;
33381;SDS011;21342;48.786;9.166;2022-08-19T05:56:50;26.30;;;23.67;;
33381;SDS011;21342;48.786;9.166;2022-08-19T05:59:18;26.40;;;23.50;;
33381;SDS011;21342;48.786;9.166;2022-08-19T06:01:47;25.67;;;22.93;;
33381;SDS011;21342;48.786;9.166;2022-08-19T06:04:16;26.90;;;24.03;;
33381;SDS011;21342;48.786;9.166;2022-08-19T06:06:44;27.07;;;22.87;;
33381;SDS011;21342;48.786;9.166;2022-08-19T06:09:12;25.10;;;22.37;;
33381;SDS011;21342;48.786;9.166;2022-08-19T06:11:41;28.60;;;23.90;;
33381;SDS011;21342;48.786;9.166;2022-08-19T06:14:11;24.13;;;21.83;;
33381;SDS011;21342;48.786;9.166;2022-08-19T06:16:41;19.97;;;18.07;;
33381;SDS011;21342;48.786;9.166;2022-08-19T06:19:10;21.83;;;19.60;;
33381;SDS011;21342;48.786;9.166;2022-08-19T06:21:40;24.20;;;21.53;;
33381;SDS011;21342;48.786;9.166;2022-08-19T06:24:09;27.20;;;23.40;;
33381;SDS011;21342;48.786;9.166;2022-08-19T06:26:39;27.50;;;21.40;;
33381;SDS011;21342;48.786;9.166;2022-08-19T06:29:11;23.80;;;21.23;;
33381;SDS011;21342;48.786;9.166;2022-08-19T06:31:41;21.50;;;19.20;;
33381;SDS011;21342;48.786;9.166;2022-08-19T06:34:09;18.23;;;16.50;;
33381;SDS011;21342;48.786;9.166;2022-08-19T06:36:38;23.93;;;21.43;;
33381;SDS011;21342;48.786;9.166;2022-08-19T06:39:09;22.73;;;20.30;;
33381;SDS011;21342;48.786;9.166;2022-08-19T06:41:39;23.10;;;20.60;;
33381;SDS011;21342;48.786;9.166;2022-08-19T06:44:10;27.60;;;21.60;;
33381;SDS011;21342;48.786;9.166;2022-08-19T06:46:38;18.43;;;16.60;;
33381;SDS011;21342;48.786;9.166;2022-08-19T06:49:06;24.57;;;21.97;;
33381;SDS011;21342;48.786;9.166;2022-08-19T06:51:35;26.27;;;23.13;;
33381;SDS011;21342;48.786;9.166;2022-08-19T06:54:02;27.53;;;24.47;;
33381;SDS011;21342;48.786;9.166;2022-08-19T06:56:30;28.33;;;25.17;;
33381;SDS011;21342;48.786;9.166;2022-08-19T06:59:00;26.63;;;23.93;;
33381;SDS011;21342;48.786;9.166;2022-08-19T07:01:29;26.17;;;23.37;;
33381;SDS011;21342;48.786;9.166;2022-08-19T07:03:56;27.20;;;24.20;;
33381;SDS011;21342;48.786;9.166;2022-08-19T07:06:23;33.93;;;25.30;;
33381;SDS011;21342;48.786;9.166;2022-08-19T07:08:50;26.93;;;24.03;;
33381;SDS011;21342;48.786;9.166;2022-08-19T07:11:17;24.33;;;21.73;;
33381;SDS011;21342;48.786;9.166;2022-08-19T07:13:45;28.10;;;25.13;;
33381;SDS011;21342;48.786;9.166;2022-08-19T07:16:16;28.33;;;23.60;;
33381;SDS011;21342;48.786;9.166;2022-08-19T07:18:44;23.17;;;20.80;;
33381;SDS011;21342;48.786;9.166;2022-08-19T07:21:13;26.17;;;22.93;;
33381;SDS011;21342;48.786;9.166;2022-08-19T07:23:41;27.10;;;24.10;;
33381;SDS011;21342;48.786;9.166;2022-08-19T07:26:10;24.97;;;22.57;;
33381;SDS011;21342;48.786;9.166;2022-08-19T07:28:38;28.33;;;22.60;;
33381;SDS011;21342;48.786;9.166;2022-08-19T07:31:06;24.90;;;22.27;;
33381;SDS011;21342;48.786;9.166;2022-08-19T07:33:35;24.40;;;21.77;;
33381;SDS011;21342;48.786;9.166;2022-08-19T07:36:03;25.23;;;22.53;;
33381;SDS011;21342;48.786;9.166;2022-08-19T07:38:31;26.23;;;20.57;;
33381;SDS011;21342;48.786;9.166;2022-08-19T07:40:58;24.67;;;22.23;;
33381;SDS011;21342;48.786;9.166;2022-08-19T07:43:25;22.83;;;20.43;;
33381;SDS011;21342;48.786;9.166;2022-08-19T07:45:54;22.33;;;20.03;;
33381;SDS011;21342;48.786;9.166;2022-08-19T07:48:22;25.33;;;22.67;;
33381;SDS011;21342;48.786;9.166;2022-08-19T07:50:52;28.40;;;23.00;;
33381;SDS011;21342;48.786;9.166;2022-08-19T07:53:20;24.93;;;22.00;;
33381;SDS011;21342;48.786;9.166;2022-08-19T07:55:47;23.33;;;21.10;;
33381;SDS011;21342;48.786;9.166;2022-08-19T07:58:21;24.17;;;21.67;;
33381;SDS011;21342;48.786;9.166;2022-08-19T08:00:49;22.67;;;20.23;;
33381;SDS011;21342;48.786;9.166;2022-08-19T08:03:17;23.13;;;20.80;;
33381;SDS011;21342;48.786;9.166;2022-08-19T08:06:07;22.60;;;19.80;;
33381;SDS011;21342;48.786;9.166;2022-08-19T08:08:52;23.73;;;21.23;;
33381;SDS011;21342;48.786;9.166;2022-08-19T08:11:42;22.23;;;19.97;;
33381;SDS011;21342;48.786;9.166;2022-08-19T08:14:15;21.50;;;19.30;;
33381;SDS011;21342;48.786;9.166;2022-08-19T08:16:45;23.67;;;20.77;;
33381;SDS011;21342;48.786;9.166;2022-08-19T08:19:12;20.83;;;18.83;;
33381;SDS011;21342;48.786;9.166;2022-08-19T08:21:42;21.87;;;18.50;;
33381;SDS011;21342;48.786;9.166;2022-08-19T08:24:10;20.37;;;18.00;;
33381;SDS011;21342;48.786;9.166;2022-08-19T08:26:37;23.83;;;20.97;;
33381;SDS011;21342;48.786;9.166;2022-08-19T08:29:04;22.27;;;19.27;;
33381;SDS011;21342;48.786;9.166;2022-08-19T08:31:32;22.47;;;20.13;;
33381;SDS011;21342;48.786;9.166;2022-08-19T08:33:59;21.00;;;19.00;;
33381;SDS011;21342;48.786;9.166;2022-08-19T08:36:27;19.40;;;17.53;;
33381;SDS011;21342;48.786;9.166;2022-08-19T08:38:59;21.53;;;19.40;;
33381;SDS011;21342;48.786;9.166;2022-08-19T08:41:28;22.00;;;19.30;;
33381;SDS011;21342;48.786;9.166;2022-08-19T08:44:01;20.27;;;18.00;;
33381;SDS011;21342;48.786;9.166;2022-08-19T08:46:33;19.77;;;17.83;;
33381;SDS011;21342;48.786;9.166;2022-08-19T08:49:07;22.80;;;20.37;;
33381;SDS011;21342;48.786;9.166;2022-08-19T08:51:46;23.23;;;20.67;;
33381;SDS011;21342;48.786;9.166;2022-08-19T08:54:19;22.50;;;20.20;;
33381;SDS011;21342;48.786;9.166;2022-08-19T08:56:50;21.17;;;18.43;;
33381;SDS011;21342;48.786;9.166;2022-08-19T08:59:20;23.50;;;21.00;;
33381;SDS011;21342;48.786;9.166;2022-08-19T09:01:52;24.20;;;20.93;;
33381;SDS011;21342;48.786;9.166;2022-08-19T09:04:19;20.20;;;18.00;;
33381;SDS011;21342;48.786;9.166;2022-08-19T09:06:49;22.87;;;20.50;;
33381;SDS011;21342;48.786;9.166;2022-08-19T09:09:24;23.50;;;21.20;;
33381;SDS011;21342;48.786;9.166;2022-08-19T09:12:03;26.17;;;20.77;;
33381;SDS011;21342;48.786;9.166;2022-08-19T09:14:36;22.00;;;19.70;;
33381;SDS011;21342;48.786;9.166;2022-08-19T09:17:10;22.67;;;20.37;;
33381;SDS011;21342;48.786;9.166;2022-08-19T09:19:46;23.30;;;20.80;;
33381;SDS011;21342;48.786;9.166;2022-08-19T09:22:16;22.20;;;19.80;;
33381;SDS011;21342;48.786;9.166;2022-08-19T09:24:48;16.63;;;15.07;;
33381;SDS011;21342;48.786;9.166;2022-08-19T09:27:15;20.50;;;18.40;;
33381;SDS011;21342;48.786;9.166;2022-08-19T09:29:42;18.77;;;17.00;;
33381;SDS011;21342;48.786;9.166;2022-08-19T09:32:09;21.13;;;17.10;;
33381;SDS011;21342;48.786;9.166;2022-08-19T09:34:37;21.37;;;17.83;;
33381;SDS011;21342;48.786;9.166;2022-08-19T09:37:04;15.67;;;14.00;;
33381;SDS011;21342;48.786;9.166;2022-08-19T09:39:31;17.80;;;16.00;;
33381;SDS011;21342;48.786;9.166;2022-08-19T09:42:00;22.63;;;16.30;;
33381;SDS011;21342;48.786;9.166;2022-08-19T09:44:28;18.60;;;16.70;;
33381;SDS011;21342;48.786;9.166;2022-08-19T09:46:55;19.70;;;16.70;;
33381;SDS011;21342;48.786;9.166;2022-08-19T09:49:22;17.70;;;15.87;;
33381;SDS011;21342;48.786;9.166;2022-08-19T09:51:50;15.67;;;14.07;;
33381;SDS011;21342;48.786;9.166;2022-08-19T09:54:20;15.97;;;14.40;;
33381;SDS011;21342;48.786;9.166;2022-08-19T09:56:48;16.67;;;15.10;;
33381;SDS011;21342;48.786;9.166;2022-08-19T09:59:16;23.23;;;17.70;;
33381;SDS011;21342;48.786;9.166;2022-08-19T10:01:43;15.27;;;13.73;;
33381;SDS011;21342;48.786;9.166;2022-08-19T10:04:11;15.77;;;14.37;;
33381;SDS011;21342;48.786;9.166;2022-08-19T10:06:38;16.07;;;14.60;;
33381;SDS011;21342;48.786;9.166;2022-08-19T10:09:07;16.33;;;14.63;;
33381;SDS011;21342;48.786;9.166;2022-08-19T10:11:36;13.43;;;12.27;;
33381;SDS011;21342;48.786;9.166;2022-08-19T10:14:05;16.67;;;14.80;;
33381;SDS011;21342;48.786;9.166;2022-08-19T10:16:35;15.53;;;14.03;;
33381;SDS011;21342;48.786;9.166;2022-08-19T10:19:04;19.50;;;14.70;;
33381;SDS011;21342;48.786;9.166;2022-08-19T10:21:32;15.40;;;13.90;;
33381;SDS011;21342;48.786;9.166;2022-08-19T10:24:01;15.47;;;13.97;;
33381;SDS011;21342;48.786;9.166;2022-08-19T10:26:31;15.83;;;14.33;;
33381;SDS011;21342;48.786;9.166;2022-08-19T10:29:01;14.40;;;13.00;;
33381;SDS011;21342;48.786;9.166;2022-08-19T10:31:30;16.90;;;15.00;;
33381;SDS011;21342;48.786;9.166;2022-08-19T10:34:00;13.77;;;12.30;;
33381;SDS011;21342;48.786;9.166;2022-08-19T10:36:28;14.87;;;12.93;;
33381;SDS011;21342;48.786;9.166;2022-08-19T10:38:58;18.17;;;14.07;;
33381;SDS011;21342;48.786;9.166;2022-08-19T10:41:28;14.83;;;13.47;;
33381;SDS011;21342;48.786;9.166;2022-08-19T10:43:57;13.73;;;12.63;;
33381;SDS011;21342;48.786;9.166;2022-08-19T10:46:29;15.20;;;13.60;;
33381;SDS011;21342;48.786;9.166;2022-08-19T10:48:57;13.47;;;12.07;;
33381;SDS011;21342;48.786;9.166;2022-08-19T10:51:26;13.77;;;12.30;;
33381;SDS011;21342;48.786;9.166;2022-08-19T10:54:11;14.30;;;12.80;;
33381;SDS011;21342;48.786;9.166;2022-08-19T10:56:38;14.50;;;12.67;;
33381;SDS011;21342;48.786;9.166;2022-08-19T10:59:17;13.50;;;12.13;;
33381;SDS011;21342;48.786;9.166;2022-08-19T11:01:46;12.20;;;11.10;;
33381;SDS011;21342;48.786;9.166;2022-08-19T11:04:16;11.73;;;10.60;;
33381;SDS011;21342;48.786;9.166;2022-08-19T11:06:44;13.47;;;11.90;;
33381;SDS011;21342;48.786;9.166;2022-08-19T11:09:12;12.13;;;10.90;;
33381;SDS011;21342;48.786;9.166;2022-08-19T11:11:40;11.37;;;10.33;;
33381;SDS011;21342;48.786;9.166;2022-08-19T11:14:08;12.00;;;10.83;;
33381;SDS011;21342;48.786;9.166;2022-08-19T11:16:36;12.30;;;11.10;;
33381;SDS011;21342;48.786;9.166;2022-08-19T11:19:04;13.23;;;11.70;;
33381;SDS011;21342;48.786;9.166;2022-08-19T11:21:36;12.07;;;10.97;;
33381;SDS011;21342;48.786;9.166;2022-08-19T11:24:05;13.20;;;10.80;;
33381;SDS011;21342;48.786;9.166;2022-08-19T11:26:34;10.90;;;9.90;;
33381;SDS011;21342;48.786;9.166;2022-08-19T11:29:03;14.83;;;10.97;;
33381;SDS011;21342;48.786;9.166;2022-08-19T11:31:36;11.43;;;10.20;;
33381;SDS011;21342;48.786;9.166;2022-08-19T11:34:07;10.87;;;9.97;;
33381;SDS011;21342;48.786;9.166;2022-08-19T11:36:38;12.07;;;10.87;;
33381;SDS011;21342;48.786;9.166;2022-08-19T11:39:11;10.87;;;9.87;;
33381;SDS011;21342;48.786;9.166;2022-08-19T11:41:39;11.50;;;10.30;;
33381;SDS011;21342;48.786;9.166;2022-08-19T11:44:07;10.83;;;9.93;;
33381;SDS011;21342;48.786;9.166;2022-08-19T11:46:35;11.67;;;10.43;;
33381;SDS011;21342;48.786;9.166;2022-08-19T11:49:03;10.77;;;9.77;;
33381;SDS011;21342;48.786;9.166;2022-08-19T11:51:32;11.20;;;10.20;;
33381;SDS011;21342;48.786;9.166;2022-08-19T11:54:01;10.77;;;9.87;;
33381;SDS011;21342;48.786;9.166;2022-08-19T11:56:31;14.37;;;10.60;;
33381;SDS011;21342;48.786;9.166;2022-08-19T11:59:00;11.03;;;10.00;;
33381;SDS011;21342;48.786;9.166;2022-08-19T12:01:27;10.70;;;9.67;;
33381;SDS011;21342;48.786;9.166;2022-08-19T12:03:55;9.27;;;8.57;;
33381;SDS011;21342;48.786;9.166;2022-08-19T12:06:25;10.10;;;9.20;;
33381;SDS011;21342;48.786;9.166;2022-08-19T12:08:54;11.30;;;9.83;;
33381;SDS011;21342;48.786;9.166;2022-08-19T12:11:23;11.93;;;10.77;;
33381;SDS011;21342;48.786;9.166;2022-08-19T12:13:51;10.70;;;9.63;;
33381;SDS011;21342;48.786;9.166;2022-08-19T12:16:20;12.70;;;9.93;;
33381;SDS011;21342;48.786;9.166;2022-08-19T12:18:48;11.97;;;10.77;;
33381;SDS011;21342;48.786;9.166;2022-08-19T12:21:17;12.17;;;10.90;;
33381;SDS011;21342;48.786;9.166;2022-08-19T12:23:46;11.20;;;10.17;;
33381;SDS011;21342;48.786;9.166;2022-08-19T12:26:15;12.43;;;11.13;;
33381;SDS011;21342;48.786;9.166;2022-08-19T12:28:44;11.00;;;10.00;;
33381;SDS011;21342;48.786;9.166;2022-08-19T12:31:13;11.43;;;10.40;;
33381;SDS011;21342;48.786;9.166;2022-08-19T12:33:41;10.00;;;9.07;;
33381;SDS011;21342;48.786;9.166;2022-08-19T12:36:10;11.20;;;10.23;;
33381;SDS011;21342;48.786;9.166;2022-08-19T12:38:39;11.03;;;10.00;;
33381;SDS011;21342;48.786;9.166;2022-08-19T12:41:06;10.73;;;9.70;;
33381;SDS011;21342;48.786;9.166;2022-08-19T12:43:37;14.10;;;10.93;;
33381;SDS011;21342;48.786;9.166;2022-08-19T12:46:06;12.03;;;10.87;;
33381;SDS011;21342;48.786;9.166;2022-08-19T12:48:35;13.53;;;12.23;;
33381;SDS011;21342;48.786;9.166;2022-08-19T12:51:05;13.90;;;12.50;;
33381;SDS011;21342;48.786;9.166;2022-08-19T12:53:34;12.07;;;10.50;;
33381;SDS011;21342;48.786;9.166;2022-08-19T12:56:02;17.70;;;13.03;;
33381;SDS011;21342;48.786;9.166;2022-08-19T12:58:30;15.43;;;13.80;;
33381;SDS011;21342;48.786;9.166;2022-08-19T13:00:59;13.53;;;12.27;;
33381;SDS011;21342;48.786;9.166;2022-08-19T13:03:33;13.33;;;12.10;;
33381;SDS011;21342;48.786;9.166;2022-08-19T13:06:00;17.13;;;12.80;;
33381;SDS011;21342;48.786;9.166;2022-08-19T13:08:27;14.10;;;12.67;;
33381;SDS011;21342;48.786;9.166;2022-08-19T13:10:54;12.43;;;11.40;;
33381;SDS011;21342;48.786;9.166;2022-08-19T13:13:23;14.53;;;13.13;;
33381;SDS011;21342;48.786;9.166;2022-08-19T13:15:51;13.67;;;12.40;;
33381;SDS011;21342;48.786;9.166;2022-08-19T13:18:18;17.33;;;14.40;;
33381;SDS011;21342;48.786;9.166;2022-08-19T13:20:46;14.13;;;11.20;;
33381;SDS011;21342;48.786;9.166;2022-08-19T13:23:13;18.10;;;14.67;;
33381;SDS011;21342;48.786;9.166;2022-08-19T13:25:41;15.37;;;13.80;;
33381;SDS011;21342;48.786;9.166;2022-08-19T13:28:08;15.67;;;14.27;;
33381;SDS011;21342;48.786;9.166;2022-08-19T13:30:35;16.20;;;12.70;;
33381;SDS011;21342;48.786;9.166;2022-08-19T13:33:19;13.37;;;12.03;;
33381;SDS011;21342;48.786;9.166;2022-08-19T13:35:49;17.83;;;13.83;;
33381;SDS011;21342;48.786;9.166;2022-08-19T13:38:22;15.70;;;14.20;;
33381;SDS011;21342;48.786;9.166;2022-08-19T13:40:50;13.00;;;11.07;;
33381;SDS011;21342;48.786;9.166;2022-08-19T13:43:18;17.97;;;14.40;;
33381;SDS011;21342;48.786;9.166;2022-08-19T13:45:47;16.13;;;14.53;;
33381;SDS011;21342;48.786;9.166;2022-08-19T13:48:14;16.20;;;14.20;;
33381;SDS011;21342;48.786;9.166;2022-08-19T13:50:44;17.13;;;15.43;;
33381;SDS011;21342;48.786;9.166;2022-08-19T13:53:14;13.97;;;12.67;;
33381;SDS011;21342;48.786;9.166;2022-08-19T13:55:42;14.07;;;12.73;;
33381;SDS011;21342;48.786;9.166;2022-08-19T13:58:10;16.73;;;15.13;;
33381;SDS011;21342;48.786;9.166;2022-08-19T14:00:39;18.77;;;16.97;;
33381;SDS011;21342;48.786;9.166;2022-08-19T14:03:07;21.33;;;19.13;;
33381;SDS011;21342;48.786;9.166;2022-08-19T14:05:35;26.57;;;20.53;;
33381;SDS011;21342;48.786;9.166;2022-08-19T14:08:03;25.00;;;22.33;;
33381;SDS011;21342;48.786;9.166;2022-08-19T14:10:32;27.20;;;21.60;;
33381;SDS011;21342;48.786;9.166;2022-08-19T14:13:00;21.23;;;19.03;;
33381;SDS011;21342;48.786;9.166;2022-08-19T14:15:29;24.33;;;21.77;;
33381;SDS011;21342;48.786;9.166;2022-08-19T14:17:57;25.97;;;23.30;;
33381;SDS011;21342;48.786;9.166;2022-08-19T14:20:24;17.67;;;15.70;;
33381;SDS011;21342;48.786;9.166;2022-08-19T14:22:52;19.03;;;17.23;;
33381;SDS011;21342;48.786;9.166;2022-08-19T14:25:20;26.93;;;24.20;;
33381;SDS011;21342;48.786;9.166;2022-08-19T14:27:50;21.87;;;19.77;;
33381;SDS011;21342;48.786;9.166;2022-08-19T14:30:18;27.03;;;24.33;;
33381;SDS011;21342;48.786;9.166;2022-08-19T14:32:47;21.27;;;19.07;;